sensor_id;sensor_type;location;lat;lon;timestamp;P1;durP1;ratioP1;P2;durP2;ratioP2
45863;SDS011;31579;52.354;16.974;2023-04-03T00:00:06;6.60;;;1.40;;
45863;SDS011;31579;52.354;16.974;2023-04-03T00:05:04;6.90;;;1.60;;
45863;SDS011;31579;52.354;16.974;2023-04-03T00:10:05;6.90;;;1.60;;
45863;SDS011;31579;52.354;16.974;2023-04-03T00:15:04;9.70;;;1.70;;
45863;SDS011;31579;52.354;16.974;2023-04-03T00:18:04;9.70;;;1.70;;
45863;SDS011;31579;52.354;16.974;2023-04-03T00:23:02;9.90;;;1.60;;
45863;SDS011;31579;52.354;16.974;2023-04-03T00:28:03;9.90;;;1.60;;
45863;SDS011;31579;52.354;16.974;2023-04-03T00:33:02;8.20;;;2.00;;
45863;SDS011;31579;52.354;16.974;2023-04-03T00:38:02;8.20;;;2.00;;
45863;SDS011;31579;52.354;16.974;2023-04-03T00:43:05;9.70;;;2.20;;
45863;SDS011;31579;52.354;16.974;2023-04-03T00:48:03;9.70;;;2.20;;
45863;SDS011;31579;52.354;16.974;2023-04-03T00:53:03;10.20;;;1.80;;
45863;SDS011;31579;52.354;16.974;2023-04-03T00:58:02;10.20;;;1.80;;
45863;SDS011;31579;52.354;16.974;2023-04-03T01:08:02;7.90;;;1.90;;
45863;SDS011;31579;52.354;16.974;2023-04-03T01:13:02;10.10;;;2.30;;
45863;SDS011;31579;52.354;16.974;2023-04-03T01:18:02;10.10;;;2.30;;
45863;SDS011;31579;52.354;16.974;2023-04-03T01:28:03;8.60;;;1.70;;
45863;SDS011;31579;52.354;16.974;2023-04-03T01:33:02;7.80;;;1.50;;
45863;SDS011;31579;52.354;16.974;2023-04-03T01:38:02;7.80;;;1.50;;
45863;SDS011;31579;52.354;16.974;2023-04-03T01:43:02;7.30;;;1.70;;
45863;SDS011;31579;52.354;16.974;2023-04-03T01:48:02;7.30;;;1.70;;
45863;SDS011;31579;52.354;16.974;2023-04-03T01:53:02;6.10;;;1.70;;
45863;SDS011;31579;52.354;16.974;2023-04-03T01:58:06;6.10;;;1.70;;
45863;SDS011;31579;52.354;16.974;2023-04-03T02:03:02;7.40;;;1.90;;
45863;SDS011;31579;52.354;16.974;2023-04-03T02:08:02;7.40;;;1.90;;
45863;SDS011;31579;52.354;16.974;2023-04-03T02:13:02;6.00;;;1.30;;
45863;SDS011;31579;52.354;16.974;2023-04-03T02:18:05;6.00;;;1.30;;
45863;SDS011;31579;52.354;16.974;2023-04-03T02:23:02;6.40;;;1.40;;
45863;SDS011;31579;52.354;16.974;2023-04-03T02:28:02;6.40;;;1.40;;
45863;SDS011;31579;52.354;16.974;2023-04-03T02:33:02;6.70;;;1.40;;
45863;SDS011;31579;52.354;16.974;2023-04-03T02:38:02;6.70;;;1.40;;
45863;SDS011;31579;52.354;16.974;2023-04-03T02:43:02;6.90;;;1.90;;
45863;SDS011;31579;52.354;16.974;2023-04-03T02:48:02;6.90;;;1.90;;
45863;SDS011;31579;52.354;16.974;2023-04-03T02:53:02;7.20;;;1.80;;
45863;SDS011;31579;52.354;16.974;2023-04-03T02:58:02;7.20;;;1.80;;
45863;SDS011;31579;52.354;16.974;2023-04-03T03:03:03;11.50;;;2.00;;
45863;SDS011;31579;52.354;16.974;2023-04-03T03:07:33;11.50;;;2.00;;
45863;SDS011;31579;52.354;16.974;2023-04-03T03:12:31;11.00;;;1.70;;
45863;SDS011;31579;52.354;16.974;2023-04-03T03:17:31;11.00;;;1.70;;
45863;SDS011;31579;52.354;16.974;2023-04-03T03:22:25;11.00;;;1.70;;
45863;SDS011;31579;52.354;16.974;2023-04-03T03:27:22;10.00;;;2.00;;
45863;SDS011;31579;52.354;16.974;2023-04-03T03:32:22;10.00;;;2.00;;
45863;SDS011;31579;52.354;16.974;2023-04-03T03:37:22;7.00;;;1.70;;
45863;SDS011;31579;52.354;16.974;2023-04-03T03:42:22;7.00;;;1.70;;
45863;SDS011;31579;52.354;16.974;2023-04-03T03:47:22;10.80;;;1.70;;
45863;SDS011;31579;52.354;16.974;2023-04-03T03:52:22;10.80;;;1.70;;
45863;SDS011;31579;52.354;16.974;2023-04-03T03:57:22;7.30;;;1.50;;
45863;SDS011;31579;52.354;16.974;2023-04-03T04:02:26;7.30;;;1.50;;
45863;SDS011;31579;52.354;16.974;2023-04-03T04:03:35;8.10;;;1.60;;
45863;SDS011;31579;52.354;16.974;2023-04-03T04:08:33;8.10;;;1.60;;
45863;SDS011;31579;52.354;16.974;2023-04-03T04:13:33;5.30;;;1.50;;
45863;SDS011;31579;52.354;16.974;2023-04-03T04:18:44;5.30;;;1.50;;
45863;SDS011;31579;52.354;16.974;2023-04-03T04:23:42;7.30;;;2.10;;
45863;SDS011;31579;52.354;16.974;2023-04-03T04:28:42;7.30;;;2.10;;
45863;SDS011;31579;52.354;16.974;2023-04-03T04:33:42;6.40;;;2.00;;
45863;SDS011;31579;52.354;16.974;2023-04-03T04:38:42;6.40;;;2.00;;
45863;SDS011;31579;52.354;16.974;2023-04-03T04:43:42;6.00;;;1.70;;
45863;SDS011;31579;52.354;16.974;2023-04-03T04:48:42;6.00;;;1.70;;
45863;SDS011;31579;52.354;16.974;2023-04-03T04:53:42;8.80;;;1.80;;
45863;SDS011;31579;52.354;16.974;2023-04-03T04:58:46;8.80;;;1.80;;
45863;SDS011;31579;52.354;16.974;2023-04-03T05:04:53;8.60;;;2.20;;
45863;SDS011;31579;52.354;16.974;2023-04-03T05:09:53;8.60;;;2.20;;
45863;SDS011;31579;52.354;16.974;2023-04-03T05:14:53;7.60;;;1.90;;
45863;SDS011;31579;52.354;16.974;2023-04-03T05:19:53;7.60;;;1.90;;
45863;SDS011;31579;52.354;16.974;2023-04-03T05:24:53;8.80;;;2.20;;
45863;SDS011;31579;52.354;16.974;2023-04-03T05:29:53;8.80;;;2.20;;
45863;SDS011;31579;52.354;16.974;2023-04-03T05:34:53;8.40;;;2.50;;
45863;SDS011;31579;52.354;16.974;2023-04-03T05:39:53;8.40;;;2.50;;
45863;SDS011;31579;52.354;16.974;2023-04-03T05:44:53;7.10;;;2.10;;
45863;SDS011;31579;52.354;16.974;2023-04-03T05:49:53;7.10;;;2.10;;
45863;SDS011;31579;52.354;16.974;2023-04-03T05:54:53;7.90;;;2.10;;
45863;SDS011;31579;52.354;16.974;2023-04-03T05:59:53;7.90;;;2.10;;
45863;SDS011;31579;52.354;16.974;2023-04-03T06:04:53;9.00;;;2.60;;
45863;SDS011;31579;52.354;16.974;2023-04-03T06:09:54;9.00;;;2.60;;
45863;SDS011;31579;52.354;16.974;2023-04-03T06:14:53;8.60;;;2.60;;
45863;SDS011;31579;52.354;16.974;2023-04-03T06:19:56;8.60;;;2.60;;
45863;SDS011;31579;52.354;16.974;2023-04-03T06:24:53;7.90;;;2.40;;
45863;SDS011;31579;52.354;16.974;2023-04-03T06:29:53;7.90;;;2.40;;
45863;SDS011;31579;52.354;16.974;2023-04-03T06:34:53;10.20;;;2.40;;
45863;SDS011;31579;52.354;16.974;2023-04-03T06:39:53;10.20;;;2.40;;
45863;SDS011;31579;52.354;16.974;2023-04-03T06:40:18;10.20;;;2.40;;
45863;SDS011;31579;52.354;16.974;2023-04-03T06:45:11;7.20;;;2.40;;
45863;SDS011;31579;52.354;16.974;2023-04-03T06:50:11;7.20;;;2.40;;
45863;SDS011;31579;52.354;16.974;2023-04-03T06:55:15;5.40;;;1.20;;
45863;SDS011;31579;52.354;16.974;2023-04-03T07:00:12;5.40;;;1.20;;
45863;SDS011;31579;52.354;16.974;2023-04-03T07:04:55;4.70;;;1.10;;
45863;SDS011;31579;52.354;16.974;2023-04-03T07:06:05;4.70;;;1.10;;
45863;SDS011;31579;52.354;16.974;2023-04-03T07:11:03;4.70;;;1.10;;
45863;SDS011;31579;52.354;16.974;2023-04-03T07:16:02;5.60;;;1.30;;
45863;SDS011;31579;52.354;16.974;2023-04-03T07:21:03;5.60;;;1.30;;
45863;SDS011;31579;52.354;16.974;2023-04-03T07:26:12;5.60;;;1.40;;
45863;SDS011;31579;52.354;16.974;2023-04-03T07:31:11;5.60;;;1.40;;
45863;SDS011;31579;52.354;16.974;2023-04-03T07:41:14;6.30;;;1.10;;
45863;SDS011;31579;52.354;16.974;2023-04-03T07:46:11;5.30;;;1.00;;
45863;SDS011;31579;52.354;16.974;2023-04-03T07:51:11;5.30;;;1.00;;
45863;SDS011;31579;52.354;16.974;2023-04-03T07:56:12;3.50;;;1.00;;
45863;SDS011;31579;52.354;16.974;2023-04-03T08:01:11;3.50;;;1.00;;
45863;SDS011;31579;52.354;16.974;2023-04-03T08:06:11;3.60;;;1.40;;
45863;SDS011;31579;52.354;16.974;2023-04-03T08:11:12;3.60;;;1.40;;
45863;SDS011;31579;52.354;16.974;2023-04-03T08:16:12;6.40;;;2.20;;
45863;SDS011;31579;52.354;16.974;2023-04-03T08:21:11;6.40;;;2.20;;
45863;SDS011;31579;52.354;16.974;2023-04-03T08:26:15;7.10;;;1.50;;
45863;SDS011;31579;52.354;16.974;2023-04-03T08:31:12;7.10;;;1.50;;
45863;SDS011;31579;52.354;16.974;2023-04-03T08:41:14;5.90;;;1.90;;
45863;SDS011;31579;52.354;16.974;2023-04-03T08:46:11;4.20;;;1.10;;
45863;SDS011;31579;52.354;16.974;2023-04-03T08:51:13;4.20;;;1.10;;
45863;SDS011;31579;52.354;16.974;2023-04-03T08:56:11;6.00;;;1.40;;
45863;SDS011;31579;52.354;16.974;2023-04-03T09:06:13;3.60;;;1.30;;
45863;SDS011;31579;52.354;16.974;2023-04-03T09:31:18;4.10;;;1.20;;
45863;SDS011;31579;52.354;16.974;2023-04-03T09:36:11;4.00;;;1.00;;
45863;SDS011;31579;52.354;16.974;2023-04-03T09:41:15;4.00;;;1.00;;
45863;SDS011;31579;52.354;16.974;2023-04-03T09:51:11;5.20;;;1.20;;
45863;SDS011;31579;52.354;16.974;2023-04-03T10:01:25;4.10;;;1.20;;
45863;SDS011;31579;52.354;16.974;2023-04-03T10:08:21;4.00;;;1.20;;
45863;SDS011;31579;52.354;16.974;2023-04-03T10:13:20;5.60;;;1.10;;
45863;SDS011;31579;52.354;16.974;2023-04-03T10:27:06;7.00;;;1.20;;
45863;SDS011;31579;52.354;16.974;2023-04-03T10:32:08;4.20;;;1.20;;
45863;SDS011;31579;52.354;16.974;2023-04-03T10:46:52;5.50;;;1.40;;
45863;SDS011;31579;52.354;16.974;2023-04-03T10:54:05;4.60;;;1.60;;
45863;SDS011;31579;52.354;16.974;2023-04-03T11:04:04;3.60;;;1.30;;
45863;SDS011;31579;52.354;16.974;2023-04-03T11:09:03;3.60;;;1.30;;
45863;SDS011;31579;52.354;16.974;2023-04-03T11:19:11;7.00;;;1.50;;
45863;SDS011;31579;52.354;16.974;2023-04-03T11:24:02;5.00;;;1.40;;
45863;SDS011;31579;52.354;16.974;2023-04-03T11:29:03;5.00;;;1.40;;
45863;SDS011;31579;52.354;16.974;2023-04-03T11:38:01;3.80;;;1.20;;
45863;SDS011;31579;52.354;16.974;2023-04-03T11:43:07;3.90;;;1.30;;
45863;SDS011;31579;52.354;16.974;2023-04-03T11:53:03;13.00;;;3.80;;
45863;SDS011;31579;52.354;16.974;2023-04-03T12:13:01;3.70;;;1.20;;
45863;SDS011;31579;52.354;16.974;2023-04-03T12:18:31;3.70;;;1.20;;
45863;SDS011;31579;52.354;16.974;2023-04-03T12:28:01;4.70;;;1.20;;
45863;SDS011;31579;52.354;16.974;2023-04-03T12:33:04;4.50;;;1.10;;
45863;SDS011;31579;52.354;16.974;2023-04-03T12:42:51;3.80;;;1.50;;
45863;SDS011;31579;52.354;16.974;2023-04-03T12:47:49;3.80;;;1.50;;
45863;SDS011;31579;52.354;16.974;2023-04-03T12:52:50;3.30;;;1.00;;
45863;SDS011;31579;52.354;16.974;2023-04-03T12:57:47;3.30;;;1.00;;
45863;SDS011;31579;52.354;16.974;2023-04-03T13:02:47;4.10;;;1.20;;
45863;SDS011;31579;52.354;16.974;2023-04-03T13:07:49;4.10;;;1.20;;
45863;SDS011;31579;52.354;16.974;2023-04-03T13:12:51;5.10;;;1.50;;
45863;SDS011;31579;52.354;16.974;2023-04-03T13:17:49;5.10;;;1.50;;
45863;SDS011;31579;52.354;16.974;2023-04-03T13:22:48;4.90;;;1.10;;
45863;SDS011;31579;52.354;16.974;2023-04-03T13:27:47;4.90;;;1.10;;
45863;SDS011;31579;52.354;16.974;2023-04-03T13:32:47;4.40;;;1.40;;
45863;SDS011;31579;52.354;16.974;2023-04-03T13:37:54;4.40;;;1.40;;
45863;SDS011;31579;52.354;16.974;2023-04-03T13:42:57;6.60;;;1.70;;
45863;SDS011;31579;52.354;16.974;2023-04-03T13:47:48;6.60;;;1.70;;
45863;SDS011;31579;52.354;16.974;2023-04-03T13:52:50;4.40;;;1.10;;
45863;SDS011;31579;52.354;16.974;2023-04-03T13:57:53;4.40;;;1.10;;
45863;SDS011;31579;52.354;16.974;2023-04-03T14:02:47;5.80;;;1.40;;
45863;SDS011;31579;52.354;16.974;2023-04-03T14:07:47;5.80;;;1.40;;
45863;SDS011;31579;52.354;16.974;2023-04-03T14:12:47;4.70;;;1.20;;
45863;SDS011;31579;52.354;16.974;2023-04-03T14:17:47;4.70;;;1.20;;
45863;SDS011;31579;52.354;16.974;2023-04-03T14:22:47;2.90;;;0.90;;
45863;SDS011;31579;52.354;16.974;2023-04-03T14:27:11;2.90;;;0.90;;
45863;SDS011;31579;52.354;16.974;2023-04-03T14:32:06;4.50;;;1.30;;
45863;SDS011;31579;52.354;16.974;2023-04-03T14:37:09;4.50;;;1.30;;
45863;SDS011;31579;52.354;16.974;2023-04-03T14:42:06;4.60;;;1.00;;
45863;SDS011;31579;52.354;16.974;2023-04-03T14:47:09;4.60;;;1.00;;
45863;SDS011;31579;52.354;16.974;2023-04-03T14:52:06;2.80;;;0.90;;
45863;SDS011;31579;52.354;16.974;2023-04-03T14:57:11;2.80;;;0.90;;
45863;SDS011;31579;52.354;16.974;2023-04-03T15:07:21;6.90;;;1.30;;
45863;SDS011;31579;52.354;16.974;2023-04-03T15:12:21;4.90;;;1.20;;
45863;SDS011;31579;52.354;16.974;2023-04-03T15:17:21;4.90;;;1.20;;
45863;SDS011;31579;52.354;16.974;2023-04-03T15:22:21;3.90;;;0.90;;
45863;SDS011;31579;52.354;16.974;2023-04-03T15:27:10;3.90;;;0.90;;
45863;SDS011;31579;52.354;16.974;2023-04-03T15:32:08;4.30;;;1.20;;
45863;SDS011;31579;52.354;16.974;2023-04-03T15:37:07;4.30;;;1.20;;
45863;SDS011;31579;52.354;16.974;2023-04-03T15:42:07;5.70;;;1.60;;
45863;SDS011;31579;52.354;16.974;2023-04-03T15:47:07;5.70;;;1.60;;
45863;SDS011;31579;52.354;16.974;2023-04-03T15:52:07;4.00;;;1.20;;
45863;SDS011;31579;52.354;16.974;2023-04-03T15:57:11;4.00;;;1.20;;
45863;SDS011;31579;52.354;16.974;2023-04-03T16:02:08;4.00;;;1.10;;
45863;SDS011;31579;52.354;16.974;2023-04-03T16:07:07;4.00;;;1.10;;
45863;SDS011;31579;52.354;16.974;2023-04-03T16:12:07;4.20;;;1.30;;
45863;SDS011;31579;52.354;16.974;2023-04-03T16:17:08;4.20;;;1.30;;
45863;SDS011;31579;52.354;16.974;2023-04-03T16:20:31;5.40;;;1.40;;
45863;SDS011;31579;52.354;16.974;2023-04-03T16:25:30;5.40;;;1.40;;
45863;SDS011;31579;52.354;16.974;2023-04-03T16:30:30;5.40;;;1.40;;
45863;SDS011;31579;52.354;16.974;2023-04-03T16:35:30;4.80;;;1.10;;
45863;SDS011;31579;52.354;16.974;2023-04-03T16:40:30;4.80;;;1.10;;
45863;SDS011;31579;52.354;16.974;2023-04-03T16:45:30;3.50;;;1.10;;
45863;SDS011;31579;52.354;16.974;2023-04-03T16:50:30;3.50;;;1.10;;
45863;SDS011;31579;52.354;16.974;2023-04-03T16:55:30;4.10;;;1.20;;
45863;SDS011;31579;52.354;16.974;2023-04-03T17:00:30;4.10;;;1.20;;
45863;SDS011;31579;52.354;16.974;2023-04-03T17:05:34;4.40;;;1.50;;
45863;SDS011;31579;52.354;16.974;2023-04-03T17:10:30;4.40;;;1.50;;
45863;SDS011;31579;52.354;16.974;2023-04-03T17:15:30;5.40;;;1.60;;
45863;SDS011;31579;52.354;16.974;2023-04-03T17:20:30;5.40;;;1.60;;
45863;SDS011;31579;52.354;16.974;2023-04-03T17:25:30;4.80;;;1.40;;
45863;SDS011;31579;52.354;16.974;2023-04-03T17:30:30;4.80;;;1.40;;
45863;SDS011;31579;52.354;16.974;2023-04-03T17:35:30;5.40;;;1.60;;
45863;SDS011;31579;52.354;16.974;2023-04-03T17:40:30;5.40;;;1.60;;
45863;SDS011;31579;52.354;16.974;2023-04-03T17:45:30;4.50;;;1.50;;
45863;SDS011;31579;52.354;16.974;2023-04-03T17:50:30;4.50;;;1.50;;
45863;SDS011;31579;52.354;16.974;2023-04-03T17:55:30;4.90;;;1.70;;
45863;SDS011;31579;52.354;16.974;2023-04-03T18:00:30;4.90;;;1.70;;
45863;SDS011;31579;52.354;16.974;2023-04-03T18:05:30;5.40;;;2.00;;
45863;SDS011;31579;52.354;16.974;2023-04-03T18:10:30;5.40;;;2.00;;
45863;SDS011;31579;52.354;16.974;2023-04-03T18:15:30;6.00;;;1.70;;
45863;SDS011;31579;52.354;16.974;2023-04-03T18:20:30;6.00;;;1.70;;
45863;SDS011;31579;52.354;16.974;2023-04-03T18:25:30;6.50;;;1.60;;
45863;SDS011;31579;52.354;16.974;2023-04-03T18:30:30;6.50;;;1.60;;
45863;SDS011;31579;52.354;16.974;2023-04-03T18:33:10;3.50;;;1.40;;
45863;SDS011;31579;52.354;16.974;2023-04-03T18:38:09;3.50;;;1.40;;
45863;SDS011;31579;52.354;16.974;2023-04-03T18:43:09;6.10;;;2.20;;
45863;SDS011;31579;52.354;16.974;2023-04-03T18:48:09;6.10;;;2.20;;
45863;SDS011;31579;52.354;16.974;2023-04-03T18:53:09;5.40;;;1.90;;
45863;SDS011;31579;52.354;16.974;2023-04-03T18:58:09;5.40;;;1.90;;
45863;SDS011;31579;52.354;16.974;2023-04-03T19:03:09;5.10;;;1.50;;
45863;SDS011;31579;52.354;16.974;2023-04-03T19:05:29;5.10;;;1.50;;
45863;SDS011;31579;52.354;16.974;2023-04-03T19:10:27;5.10;;;1.50;;
45863;SDS011;31579;52.354;16.974;2023-04-03T19:15:27;5.70;;;1.80;;
45863;SDS011;31579;52.354;16.974;2023-04-03T19:20:27;5.70;;;1.80;;
45863;SDS011;31579;52.354;16.974;2023-04-03T19:25:27;6.80;;;2.30;;
45863;SDS011;31579;52.354;16.974;2023-04-03T19:29:04;6.80;;;2.30;;
45863;SDS011;31579;52.354;16.974;2023-04-03T19:34:02;4.60;;;2.00;;
45863;SDS011;31579;52.354;16.974;2023-04-03T19:39:02;4.60;;;2.00;;
45863;SDS011;31579;52.354;16.974;2023-04-03T19:48:03;7.00;;;2.30;;
45863;SDS011;31579;52.354;16.974;2023-04-03T19:53:03;7.20;;;2.30;;
45863;SDS011;31579;52.354;16.974;2023-04-03T19:58:03;7.20;;;2.30;;
45863;SDS011;31579;52.354;16.974;2023-04-03T20:03:03;7.40;;;2.50;;
45863;SDS011;31579;52.354;16.974;2023-04-03T20:08:14;7.40;;;2.50;;
45863;SDS011;31579;52.354;16.974;2023-04-03T20:13:12;14.90;;;5.40;;
45863;SDS011;31579;52.354;16.974;2023-04-03T20:18:13;14.90;;;5.40;;
45863;SDS011;31579;52.354;16.974;2023-04-03T20:23:12;8.90;;;3.40;;
45863;SDS011;31579;52.354;16.974;2023-04-03T20:28:12;8.90;;;3.40;;
45863;SDS011;31579;52.354;16.974;2023-04-03T20:33:12;9.70;;;3.30;;
45863;SDS011;31579;52.354;16.974;2023-04-03T20:38:15;9.70;;;3.30;;
45863;SDS011;31579;52.354;16.974;2023-04-03T20:43:12;10.30;;;3.20;;
45863;SDS011;31579;52.354;16.974;2023-04-03T20:48:12;10.30;;;3.20;;
45863;SDS011;31579;52.354;16.974;2023-04-03T20:53:13;8.40;;;3.20;;
45863;SDS011;31579;52.354;16.974;2023-04-03T20:58:12;8.40;;;3.20;;
45863;SDS011;31579;52.354;16.974;2023-04-03T21:03:12;9.50;;;3.10;;
45863;SDS011;31579;52.354;16.974;2023-04-03T21:23:13;8.90;;;3.50;;
45863;SDS011;31579;52.354;16.974;2023-04-03T21:28:13;8.90;;;3.50;;
45863;SDS011;31579;52.354;16.974;2023-04-03T21:33:13;7.80;;;3.60;;
45863;SDS011;31579;52.354;16.974;2023-04-03T21:38:12;7.80;;;3.60;;
45863;SDS011;31579;52.354;16.974;2023-04-03T21:43:12;10.50;;;3.20;;
45863;SDS011;31579;52.354;16.974;2023-04-03T21:48:12;10.50;;;3.20;;
45863;SDS011;31579;52.354;16.974;2023-04-03T21:53:12;10.70;;;3.30;;
45863;SDS011;31579;52.354;16.974;2023-04-03T21:58:12;10.70;;;3.30;;
45863;SDS011;31579;52.354;16.974;2023-04-03T22:03:17;7.30;;;3.10;;
45863;SDS011;31579;52.354;16.974;2023-04-03T22:08:12;7.30;;;3.10;;
45863;SDS011;31579;52.354;16.974;2023-04-03T22:13:12;8.60;;;3.60;;
45863;SDS011;31579;52.354;16.974;2023-04-03T22:18:08;8.60;;;3.60;;
45863;SDS011;31579;52.354;16.974;2023-04-03T22:23:05;8.30;;;3.50;;
45863;SDS011;31579;52.354;16.974;2023-04-03T22:28:05;8.30;;;3.50;;
45863;SDS011;31579;52.354;16.974;2023-04-03T22:33:05;10.60;;;3.20;;
45863;SDS011;31579;52.354;16.974;2023-04-03T22:38:05;10.60;;;3.20;;
45863;SDS011;31579;52.354;16.974;2023-04-03T22:43:06;9.00;;;3.30;;
45863;SDS011;31579;52.354;16.974;2023-04-03T22:48:05;9.00;;;3.30;;
45863;SDS011;31579;52.354;16.974;2023-04-03T22:53:05;8.20;;;3.20;;
45863;SDS011;31579;52.354;16.974;2023-04-03T22:58:06;8.20;;;3.20;;
45863;SDS011;31579;52.354;16.974;2023-04-03T23:03:05;8.30;;;2.80;;
45863;SDS011;31579;52.354;16.974;2023-04-03T23:08:05;8.30;;;2.80;;
45863;SDS011;31579;52.354;16.974;2023-04-03T23:11:52;12.00;;;3.40;;
45863;SDS011;31579;52.354;16.974;2023-04-03T23:16:51;12.00;;;3.40;;
45863;SDS011;31579;52.354;16.974;2023-04-03T23:21:51;8.40;;;3.40;;
45863;SDS011;31579;52.354;16.974;2023-04-03T23:26:51;8.40;;;3.40;;
45863;SDS011;31579;52.354;16.974;2023-04-03T23:31:51;10.50;;;3.10;;
45863;SDS011;31579;52.354;16.974;2023-04-03T23:36:51;10.50;;;3.10;;
45863;SDS011;31579;52.354;16.974;2023-04-03T23:41:51;9.80;;;3.30;;
45863;SDS011;31579;52.354;16.974;2023-04-03T23:46:51;9.80;;;3.30;;
45863;SDS011;31579;52.354;16.974;2023-04-03T23:51:51;7.90;;;2.90;;
45863;SDS011;31579;52.354;16.974;2023-04-03T23:56:51;7.90;;;2.90;;
